Aviation Digital Data Service (ADDS)

Output produced by METARs form (0436 UTC 03 September 2014)
found at http://aviationweather.gov/adds/metars/
 
KARA 022326Z 0300/0324 15005KT P6SM FEW025 OVC250 
     FM031600 14008KT P6SM VCSH SCT030 
     PROB30 0318/0322 3SM SHRA BKN035